createdAt,value
2018-07-12T00:02:57.087Z,16.31
2018-07-12T00:12:56.746Z,16.15
2018-07-12T00:22:56.681Z,15.89
2018-07-12T00:32:56.685Z,15.75
2018-07-12T00:42:56.760Z,15.51
2018-07-12T00:52:56.684Z,15.46
2018-07-12T01:02:56.770Z,15.56
2018-07-12T01:12:56.740Z,15.48
2018-07-12T01:22:56.694Z,15.56
2018-07-12T01:32:56.730Z,15.36
2018-07-12T01:42:56.744Z,15.52
2018-07-12T01:52:56.693Z,15.46
2018-07-12T02:02:56.662Z,15.26
2018-07-12T02:12:56.719Z,15.21
2018-07-12T02:22:56.672Z,15.01
2018-07-12T02:32:56.738Z,14.84
2018-07-12T02:42:56.716Z,14.8
2018-07-12T02:52:56.783Z,14.81
2018-07-12T03:02:56.757Z,14.72
2018-07-12T03:12:56.692Z,14.5
2018-07-12T03:22:56.728Z,14.49
2018-07-12T03:32:56.728Z,14.42
2018-07-12T03:42:56.654Z,14.52
2018-07-12T03:52:56.743Z,14.54
2018-07-12T04:02:56.680Z,14.57
2018-07-12T04:12:56.761Z,14.9
2018-07-12T04:22:56.735Z,15.17
2018-07-12T04:32:56.823Z,15.41
2018-07-12T04:42:56.710Z,15.51
2018-07-12T04:52:56.806Z,15.61
2018-07-12T05:02:56.771Z,15.81
2018-07-12T05:12:56.843Z,16.31
2018-07-12T05:22:56.816Z,16.67
2018-07-12T05:32:56.797Z,16.93
2018-07-12T05:42:56.826Z,17.23
2018-07-12T05:52:56.791Z,17.62
2018-07-12T06:02:56.903Z,18.18
2018-07-12T06:12:56.804Z,20.28
2018-07-12T06:22:56.774Z,24.5
2018-07-12T06:32:56.811Z,26.83
2018-07-12T06:42:56.843Z,27.66
2018-07-12T06:52:56.921Z,29.11
2018-07-12T07:02:56.825Z,29.68
2018-07-12T07:12:56.774Z,31.23
2018-07-12T07:22:56.791Z,32.88
2018-07-12T07:32:56.800Z,33.19
2018-07-12T07:42:56.886Z,34.45
2018-07-12T07:52:57.492Z,36.12
2018-07-12T08:02:56.810Z,35.48
2018-07-12T08:12:56.840Z,36.6
2018-07-12T08:22:56.779Z,36.85
2018-07-12T08:32:56.879Z,36.86
2018-07-12T08:42:56.822Z,36.06
2018-07-12T08:52:56.819Z,36.35
2018-07-12T09:02:56.876Z,34.86
2018-07-12T09:12:56.813Z,35.44
2018-07-12T09:22:56.852Z,31.3
2018-07-12T09:32:56.863Z,28.75
2018-07-12T09:42:56.847Z,28.01
2018-07-12T09:52:56.862Z,27.66
2018-07-12T10:02:56.848Z,27.05
2018-07-12T10:12:56.865Z,27.67
2018-07-12T10:22:56.825Z,27.67
2018-07-12T10:32:56.799Z,27.23
2018-07-12T10:42:56.817Z,27.13
2018-07-12T10:52:56.929Z,27.17
2018-07-12T11:02:56.844Z,27.32
2018-07-12T11:12:56.889Z,27.54
2018-07-12T11:22:56.860Z,27.58
2018-07-12T11:32:56.879Z,28.53
2018-07-12T11:42:56.973Z,28.62
2018-07-12T11:52:56.992Z,27.71
2018-07-12T12:02:56.930Z,27.33
2018-07-12T12:12:56.898Z,27.61
2018-07-12T12:22:56.960Z,28.28
2018-07-12T12:32:57.057Z,28.41
2018-07-12T12:42:57.077Z,28.63
2018-07-12T12:52:56.902Z,28.85
2018-07-12T13:02:56.967Z,28.66
2018-07-12T13:12:57.453Z,28.46
2018-07-12T13:22:56.881Z,28.46
2018-07-12T13:32:57.000Z,28.41
2018-07-12T13:42:56.918Z,28.41
2018-07-12T13:52:58.038Z,29.13
2018-07-12T14:02:56.951Z,28.82
2018-07-12T14:12:57.070Z,29.08
2018-07-12T14:22:58.044Z,29.4
2018-07-12T14:32:59.429Z,29.47
2018-07-12T14:42:58.953Z,29.71
2018-07-12T14:52:56.901Z,29.96
2018-07-12T15:02:57.115Z,29.56
2018-07-12T15:12:59.027Z,30.19
2018-07-12T15:22:57.979Z,29.29
2018-07-12T15:32:58.082Z,27.92
2018-07-12T15:42:56.921Z,27.48
2018-07-12T15:52:56.950Z,26.37
2018-07-12T16:02:56.939Z,26.06
2018-07-12T16:12:56.951Z,24.1
2018-07-12T16:22:56.975Z,21.92
2018-07-12T16:32:59.088Z,21.92
2018-07-12T16:42:57.355Z,22.04
2018-07-12T16:52:57.093Z,21.99
2018-07-12T17:02:58.169Z,22.29
2018-07-12T17:12:57.008Z,22.28
2018-07-12T17:22:56.984Z,22.34
2018-07-12T17:32:56.964Z,22.5
2018-07-12T17:42:56.965Z,22.54
2018-07-12T17:52:56.991Z,22.92
2018-07-12T18:02:57.068Z,23.12
2018-07-12T18:12:56.975Z,23.35
2018-07-12T18:22:57.030Z,23.22
2018-07-12T18:32:57.159Z,23.05
2018-07-12T18:42:57.075Z,22.38
2018-07-12T18:52:57.201Z,22.02
2018-07-12T19:02:57.169Z,21.36
2018-07-12T19:12:56.944Z,20.95
2018-07-12T19:22:57.004Z,20.54
2018-07-12T19:32:57.142Z,20.23
2018-07-12T19:42:57.162Z,20.3
2018-07-12T19:52:56.998Z,20.16
2018-07-12T20:02:56.981Z,19.95
2018-07-12T20:12:57.826Z,19.8
2018-07-12T20:22:57.071Z,19.83
2018-07-12T20:32:57.319Z,19.51
2018-07-12T20:42:57.239Z,19.17
2018-07-12T20:52:57.290Z,18.98
2018-07-12T21:02:57.346Z,18.77
2018-07-12T21:12:58.238Z,18.7
2018-07-12T21:22:57.357Z,18.43
2018-07-12T21:32:57.123Z,18.52
2018-07-12T21:42:57.086Z,18.68
2018-07-12T21:52:56.989Z,18.54
2018-07-12T22:02:57.335Z,18.49
2018-07-12T22:12:56.967Z,18.36
2018-07-12T22:22:57.009Z,18.25
2018-07-12T22:32:56.993Z,18.07
2018-07-12T22:42:57.181Z,18.09
2018-07-12T22:52:56.968Z,17.81
2018-07-12T23:02:57.015Z,17.64
2018-07-12T23:12:57.364Z,17.46
2018-07-12T23:22:57.191Z,17.22
2018-07-12T23:32:57.525Z,16.96
2018-07-12T23:42:56.987Z,16.89
2018-07-12T23:52:57.000Z,16.48
